Ormstown, Canada
Current Conditions -  °F | °C
As of 7:00 AM on Monday 20 Oct 2014 (Local Time) from CYUL Reporting Station
Broken Clouds Broken Clouds  
Wind Chill: 36°   Ceiling: 12000
Heat Index: 36°   Visibility: 15mi
Dew Point: 25°   Wind: 3mph
Humidity: 65%   Direction: 240°WSW
Pressure: 29.98"   Gusts: NA
Location:  45.13°N, 74°W
Report Text: CYUL 201100Z 24003KT 15SM FEW030 BKN120 02/M04 A2998 RMK SC1AS7 SC TR SLP154
Loading
Personal Weather Stations






























Interactive Weather Map
Tropical Storm Tracking
New forecast layout! Learn more

10-Day Weather Forecast

Advertisements
Track Severe Weather on mobile